North Platte, NE

12:19 PM CST on February 09, 2016 (GMT -0600)
K0KDC North Platte | | Change Station
CLOSE
Current Station
Personal Weather Station
Location: North Platte, NE
Elevation: 2808 ft
Nearby Weather Stations

Elev 2808 ft 41.14 °N, 100.77 °W | Updated 4 minutes ago

Overcast
Overcast
34.8 °F
Feels Like 35 °F
N
0.0
Wind Variable Wind from NE
Gusts 2.0 mph

Today
High -- | Low -- °F
--% Chance of Precip.
Yesterday
High -- | Low -- °F
Precip. -- in
Pressure 30.35 in
Visibility 10.0 miles
Clouds Mostly Cloudy 4500 ft
Overcast 6000 ft
Windchill 35 °F
Dew Point 22 °F
Humidity 59%
Rainfall 0.00 in
Snow Depth Not available.
7:45 AM 6:09 PM
New Moon, 2% visible
METAR KLBF 091753Z AUTO 24003KT 10SM BKN045 OVC060 01/M07 A3027 RMK AO2 SLP277 T00061067 10006 21050 50010
Pressure 30.35 in
Visibility 10.0 miles
Clouds Mostly Cloudy 4500 ft
Overcast 6000 ft
Windchill 35 °F
Dew Point 22 °F
Humidity 59%
Rainfall 0.00 in
Snow Depth Not available.
7:45 AM 6:09 PM
New Moon, 2% visible
METAR KLBF 091753Z AUTO 24003KT 10SM BKN045 OVC060 01/M07 A3027 RMK AO2 SLP277 T00061067 10006 21050 50010

10-Day Weather Forecast

Almanac

Astronomy

Feb. 09, 2016 Rise Set
Actual Time
Civil Twilight
Nautical Twilight
Astronomical Twilight
Moon
Length of Visible Light
Length of Day
Tomorrow will be .
, % of the Moon is Illuminated

Today's Extremes

State Highs State Lows

Community

WunderPhotos

Upload Photos

1,891,651 photos uploaded!

WunderBlog® & News

Nearby

Air Quality

  Air Quality AQ Index Pollutant
Not available.

Snow Depth

Station Depth Elevation

Earthquake Activity

City Distance Mag. Time & Date
Minimum magnitude displayed is 2.5.

Coastal Water Temperatures

Place Temperature

Stations

Nearby Weather Stations

Station Location Temp. Windchill Dew Point Humidity Wind Precip. Elev Updated Type
                   

Watches & Warnings

There are currently no watches in effect.